Terminal Aerodrome Forecast
Issued by NWS

Home | Current Version | Previous Version | Graphics & Text | Print | Product List | Glossary On
Versions: 1 2 3 4 5 6 7 8 9 10 11 12 13 14 15 16 17 18 19 20
000
FTUS43 KGRB 262300
TAFMTW
TAF
KMTW 262337Z 2700/2724 VRB03KT P6SM SCT009 BKN025
      TEMPO 2700/2704 5SM BR BKN010 BKN022
     FM270400 13003KT 5SM BR SCT009 BKN020
     FM271000 02005KT 5SM -RASN BR BKN006 BKN012
     FM271300 03005KT 2SM -RASN BR OVC009
     FM271900 29011G15KT 5SM -SN BKN016
     FM272100 29008KT P6SM SCT016 BKN070=

USA.gov is the U.S. government's official web portal to all federal, state and local government web resources and services.